createdAt,value
2023-01-13T00:00:30.558Z,18.00
2023-01-13T00:03:18.480Z,23.80
2023-01-13T00:05:46.372Z,26.60
2023-01-13T00:08:14.231Z,26.50
2023-01-13T00:10:42.543Z,27.80
2023-01-13T00:13:10.718Z,24.90
2023-01-13T00:15:38.715Z,24.90
2023-01-13T00:18:06.964Z,21.30
2023-01-13T00:20:34.878Z,21.30
2023-01-13T00:23:04.415Z,17.10
2023-01-13T00:25:32.862Z,20.90
2023-01-13T00:28:00.860Z,20.90
2023-01-13T00:30:29.168Z,26.80
2023-01-13T00:32:57.166Z,23.30
2023-01-13T00:35:25.105Z,23.60
2023-01-13T00:37:52.943Z,25.60
2023-01-13T00:40:20.892Z,23.20
2023-01-13T00:43:07.657Z,20.50
2023-01-13T00:45:35.528Z,25.90
2023-01-13T00:48:03.509Z,17.00
2023-01-13T00:50:31.525Z,22.80
2023-01-13T00:53:00.757Z,24.40
2023-01-13T00:55:32.284Z,24.60
2023-01-13T00:58:03.484Z,22.60
2023-01-13T01:00:32.889Z,19.60
2023-01-13T01:03:01.153Z,22.30
2023-01-13T01:05:29.410Z,20.30
2023-01-13T01:07:57.427Z,22.40
2023-01-13T01:10:25.658Z,23.60
2023-01-13T01:12:53.627Z,23.40
2023-01-13T01:15:21.704Z,23.10
2023-01-13T01:17:49.985Z,26.60
2023-01-13T01:20:18.157Z,27.60
2023-01-13T01:22:46.163Z,24.50
2023-01-13T01:25:14.108Z,29.30
2023-01-13T01:27:41.943Z,24.90
2023-01-13T01:30:10.886Z,23.90
2023-01-13T01:32:38.818Z,25.80
2023-01-13T01:35:07.189Z,21.10
2023-01-13T01:37:35.065Z,22.90
2023-01-13T01:40:03.207Z,21.60
2023-01-13T01:42:50.014Z,19.60
2023-01-13T01:45:22.711Z,24.50
2023-01-13T01:47:57.480Z,20.60
2023-01-13T01:50:26.336Z,26.20
2023-01-13T01:53:00.051Z,21.10
2023-01-13T01:55:31.401Z,21.90
2023-01-13T01:58:09.457Z,28.00
2023-01-13T02:00:37.379Z,24.00
2023-01-13T02:03:07.457Z,24.60
2023-01-13T02:05:35.936Z,26.30
2023-01-13T02:08:04.279Z,22.50
2023-01-13T02:13:04.921Z,19.90
2023-01-13T02:15:59.126Z,21.60
2023-01-13T02:19:01.536Z,21.90
2023-01-13T02:21:46.400Z,23.30
2023-01-13T02:24:55.134Z,19.70
2023-01-13T02:27:54.618Z,22.30
2023-01-13T02:31:00.213Z,23.80
2023-01-13T02:33:34.403Z,23.00
2023-01-13T02:36:05.232Z,24.90
2023-01-13T02:38:37.433Z,25.30
2023-01-13T02:41:38.062Z,25.80
2023-01-13T02:44:07.793Z,22.00
2023-01-13T02:46:46.801Z,20.70
2023-01-13T02:49:24.714Z,26.30
2023-01-13T02:51:55.037Z,23.70
2023-01-13T02:54:27.890Z,26.70
2023-01-13T02:56:58.237Z,26.40
2023-01-13T02:59:28.334Z,25.20
2023-01-13T03:01:58.321Z,25.20
2023-01-13T03:04:55.948Z,22.10
2023-01-13T03:07:44.337Z,23.80
2023-01-13T03:10:39.812Z,25.10
2023-01-13T03:13:46.216Z,24.90
2023-01-13T03:16:23.880Z,26.90
2023-01-13T03:19:16.143Z,31.50
2023-01-13T03:21:44.092Z,26.80
2023-01-13T03:24:17.988Z,31.90
2023-01-13T03:26:56.834Z,31.20
2023-01-13T03:29:37.172Z,30.00
2023-01-13T03:32:33.207Z,34.00
2023-01-13T03:35:25.953Z,27.90
2023-01-13T03:38:02.935Z,30.00
2023-01-13T03:40:36.252Z,30.80
2023-01-13T03:43:32.702Z,32.90
2023-01-13T03:46:09.679Z,37.70
2023-01-13T03:48:42.060Z,33.20
2023-01-13T03:51:15.010Z,30.10
2023-01-13T03:53:51.462Z,27.50
2023-01-13T03:56:28.186Z,29.30
2023-01-13T03:58:59.065Z,34.30
2023-01-13T04:01:35.272Z,29.30
2023-01-13T04:04:09.452Z,32.10
2023-01-13T04:06:38.359Z,30.40
2023-01-13T04:09:24.661Z,25.90
2023-01-13T04:12:04.112Z,33.30
2023-01-13T04:14:32.337Z,24.60
2023-01-13T04:17:00.341Z,30.80
2023-01-13T04:19:28.517Z,28.60
2023-01-13T04:21:56.503Z,30.40
2023-01-13T04:24:25.790Z,27.60
2023-01-13T04:26:53.932Z,27.40
2023-01-13T04:29:22.341Z,23.90
2023-01-13T04:31:50.531Z,24.70
2023-01-13T04:34:18.482Z,29.10
2023-01-13T04:36:46.534Z,30.80
2023-01-13T04:39:14.489Z,27.80
2023-01-13T04:41:57.964Z,31.50
2023-01-13T04:44:27.425Z,28.00
2023-01-13T04:46:55.437Z,26.50
2023-01-13T04:49:23.294Z,23.40
2023-01-13T04:51:51.187Z,27.70
2023-01-13T04:54:19.561Z,25.70
2023-01-13T04:56:47.515Z,32.00
2023-01-13T04:59:15.329Z,32.60
2023-01-13T05:01:43.319Z,27.20
2023-01-13T05:04:11.834Z,29.30
2023-01-13T05:06:39.920Z,29.00
2023-01-13T05:09:07.880Z,32.60
2023-01-13T05:11:54.271Z,29.00
2023-01-13T05:14:40.882Z,29.50
2023-01-13T05:17:12.400Z,33.70
2023-01-13T05:19:42.660Z,29.10
2023-01-13T05:22:30.527Z,25.90
2023-01-13T05:25:17.777Z,26.60
2023-01-13T05:27:45.822Z,26.60
2023-01-13T05:30:14.168Z,26.40
2023-01-13T05:32:42.137Z,25.30
2023-01-13T05:35:10.106Z,32.00
2023-01-13T05:37:38.151Z,31.90
2023-01-13T05:40:25.615Z,36.80
2023-01-13T05:43:20.939Z,26.50
2023-01-13T05:46:02.093Z,33.90
2023-01-13T05:48:37.555Z,42.00
2023-01-13T05:51:07.673Z,38.20
2023-01-13T05:53:35.700Z,30.10
2023-01-13T05:56:05.524Z,32.20
2023-01-13T05:58:34.205Z,32.50
2023-01-13T06:01:07.440Z,28.60
2023-01-13T06:03:36.525Z,28.00
2023-01-13T06:06:05.009Z,31.10
2023-01-13T06:08:33.281Z,27.60
2023-01-13T06:11:01.145Z,30.90
2023-01-13T06:13:29.324Z,33.50
2023-01-13T06:15:59.152Z,26.30
2023-01-13T06:18:27.736Z,27.00
2023-01-13T06:20:56.683Z,30.20
2023-01-13T06:23:24.865Z,29.90
2023-01-13T06:25:58.490Z,25.10
2023-01-13T06:28:26.764Z,34.80
2023-01-13T06:31:03.594Z,30.90
2023-01-13T06:33:41.477Z,30.30
2023-01-13T06:36:17.286Z,27.50
2023-01-13T06:38:48.790Z,30.10
2023-01-13T06:41:17.848Z,29.70
2023-01-13T06:43:46.685Z,34.70
2023-01-13T06:46:14.606Z,30.60
2023-01-13T06:48:42.509Z,30.80
2023-01-13T06:51:10.537Z,35.60
2023-01-13T06:53:38.619Z,31.80
2023-01-13T06:56:06.986Z,38.30
2023-01-13T06:58:34.819Z,32.50
2023-01-13T07:01:02.936Z,33.40
2023-01-13T07:03:31.034Z,27.60
2023-01-13T07:05:59.850Z,30.00
2023-01-13T07:08:28.173Z,33.20
2023-01-13T07:10:56.143Z,34.80
2023-01-13T07:13:42.999Z,30.90
2023-01-13T07:16:11.079Z,30.20
2023-01-13T07:18:39.607Z,28.60
2023-01-13T07:21:10.066Z,32.70
2023-01-13T07:23:40.457Z,34.80
2023-01-13T07:26:10.374Z,32.10
2023-01-13T07:28:39.474Z,36.10
2023-01-13T07:31:18.250Z,33.50
2023-01-13T07:33:46.871Z,35.70
2023-01-13T07:36:15.374Z,37.70
2023-01-13T07:38:44.746Z,32.40
2023-01-13T07:41:32.907Z,40.80
2023-01-13T07:44:05.234Z,53.20
2023-01-13T07:46:34.655Z,50.70
2023-01-13T07:49:03.157Z,49.00
2023-01-13T07:51:31.248Z,44.70
2023-01-13T07:53:59.301Z,46.90
2023-01-13T07:56:27.242Z,46.30
2023-01-13T07:58:55.246Z,44.60
2023-01-13T08:01:23.379Z,41.60
2023-01-13T08:03:51.394Z,37.60
2023-01-13T08:06:19.660Z,41.80
2023-01-13T08:08:47.738Z,30.60
2023-01-13T08:11:15.705Z,31.90
2023-01-13T08:13:43.668Z,31.20
2023-01-13T08:16:14.160Z,32.00
2023-01-13T08:18:43.339Z,33.40
2023-01-13T08:21:14.376Z,39.70
2023-01-13T08:23:44.281Z,36.50
2023-01-13T08:26:16.009Z,32.60
2023-01-13T08:28:45.211Z,36.70
2023-01-13T08:31:17.022Z,41.90
2023-01-13T08:33:45.199Z,36.50
2023-01-13T08:36:14.071Z,34.70
2023-01-13T08:38:42.420Z,34.20
2023-01-13T08:41:36.384Z,35.90
2023-01-13T08:44:06.408Z,33.90
2023-01-13T08:46:34.520Z,36.10
2023-01-13T08:49:02.959Z,32.00
2023-01-13T08:51:30.955Z,32.10
2023-01-13T08:53:58.982Z,28.50
2023-01-13T08:56:26.856Z,28.00
2023-01-13T08:58:58.237Z,27.30
2023-01-13T09:01:27.159Z,30.00
2023-01-13T09:03:55.623Z,31.30
2023-01-13T09:06:23.764Z,31.90
2023-01-13T09:08:52.266Z,33.20
2023-01-13T09:11:47.969Z,31.20
2023-01-13T09:14:21.466Z,25.80
2023-01-13T09:16:49.722Z,25.50
2023-01-13T09:19:17.587Z,22.40
2023-01-13T09:21:45.583Z,23.20
2023-01-13T09:24:13.755Z,22.80
2023-01-13T09:26:41.929Z,23.10
2023-01-13T09:29:09.939Z,20.80
2023-01-13T09:31:38.068Z,24.40
2023-01-13T09:34:26.630Z,23.20
2023-01-13T09:36:55.006Z,23.80
2023-01-13T09:39:22.895Z,19.30
2023-01-13T09:42:13.368Z,19.80
2023-01-13T09:44:58.597Z,21.30
2023-01-13T09:47:39.133Z,21.90
2023-01-13T09:50:34.126Z,19.70
2023-01-13T09:53:02.257Z,18.30
2023-01-13T09:55:36.579Z,19.20
2023-01-13T09:58:16.916Z,18.10
2023-01-13T10:00:57.633Z,14.10
2023-01-13T10:03:30.015Z,16.00
2023-01-13T10:06:35.147Z,14.10
2023-01-13T10:09:03.317Z,14.90
2023-01-13T10:11:59.140Z,14.00
2023-01-13T10:14:50.521Z,13.20
2023-01-13T10:17:18.431Z,11.60
2023-01-13T10:20:17.705Z,11.80
2023-01-13T10:22:49.870Z,10.90
2023-01-13T10:25:32.467Z,10.90
2023-01-13T10:28:11.110Z,14.30
2023-01-13T10:30:42.510Z,10.90
2023-01-13T10:33:13.519Z,11.10
2023-01-13T10:35:57.559Z,13.30
2023-01-13T10:38:34.650Z,12.60
2023-01-13T10:41:06.333Z,12.00
2023-01-13T10:43:34.227Z,11.00
2023-01-13T10:46:16.538Z,10.90
2023-01-13T10:48:58.966Z,11.50
2023-01-13T10:51:26.962Z,10.90
2023-01-13T10:53:59.128Z,12.50
2023-01-13T10:56:33.223Z,10.20
2023-01-13T10:59:10.145Z,10.80
2023-01-13T11:01:38.361Z,9.50
2023-01-13T11:04:27.711Z,9.00
2023-01-13T11:06:57.169Z,9.70
2023-01-13T11:09:27.164Z,11.60
2023-01-13T11:11:57.273Z,9.70
2023-01-13T11:14:43.248Z,8.80
2023-01-13T11:17:30.059Z,9.00
2023-01-13T11:20:17.635Z,9.70
2023-01-13T11:22:53.090Z,10.40
2023-01-13T11:25:32.727Z,10.50
2023-01-13T11:28:16.310Z,10.30
2023-01-13T11:30:55.055Z,9.80
2023-01-13T11:33:38.264Z,13.60
2023-01-13T11:36:11.302Z,9.90
2023-01-13T11:38:47.898Z,9.90
2023-01-13T11:41:42.058Z,12.50
2023-01-13T11:44:09.897Z,11.80
2023-01-13T11:46:39.059Z,11.00
2023-01-13T11:51:50.024Z,10.60
2023-01-13T11:54:40.369Z,9.70
2023-01-13T11:57:29.057Z,8.50
2023-01-13T12:00:08.878Z,8.40
2023-01-13T12:02:58.170Z,8.80
2023-01-13T12:05:34.374Z,7.60
2023-01-13T12:08:20.945Z,13.20
2023-01-13T12:11:59.878Z,9.10
2023-01-13T12:14:55.940Z,11.10
2023-01-13T12:17:47.358Z,7.80
2023-01-13T12:20:18.217Z,8.60
2023-01-13T12:22:49.163Z,8.20
2023-01-13T12:25:37.081Z,9.70
2023-01-13T12:28:19.497Z,8.10
2023-01-13T12:30:56.657Z,6.90
2023-01-13T12:33:47.133Z,8.20
2023-01-13T12:36:32.969Z,7.90
2023-01-13T12:39:15.326Z,8.20
2023-01-13T12:42:16.445Z,8.60
2023-01-13T12:45:12.254Z,8.60
2023-01-13T12:47:45.532Z,9.00
2023-01-13T12:50:22.892Z,8.60
2023-01-13T12:53:20.655Z,9.40
2023-01-13T12:56:22.204Z,10.90
2023-01-13T12:58:50.443Z,8.80
2023-01-13T13:01:35.431Z,10.10
2023-01-13T13:04:41.103Z,10.60
2023-01-13T13:07:14.288Z,9.10
2023-01-13T13:10:02.839Z,9.70
2023-01-13T13:15:27.656Z,10.40
2023-01-13T13:18:01.721Z,11.70
2023-01-13T13:20:58.004Z,10.40
2023-01-13T13:23:37.029Z,9.90
2023-01-13T13:26:45.640Z,11.00
2023-01-13T13:29:19.427Z,11.20
2023-01-13T13:31:50.277Z,11.30
2023-01-13T13:34:27.225Z,11.10
2023-01-13T13:37:20.093Z,9.80
2023-01-13T13:40:06.847Z,11.20
2023-01-13T13:43:02.460Z,11.80
2023-01-13T13:45:50.096Z,11.80
2023-01-13T13:48:28.280Z,12.10
2023-01-13T13:51:02.184Z,11.20
2023-01-13T13:53:35.005Z,11.50
2023-01-13T13:56:14.945Z,11.90
2023-01-13T13:58:43.736Z,13.30
2023-01-13T14:01:25.968Z,11.20
2023-01-13T14:04:17.350Z,11.30
2023-01-13T14:06:55.442Z,13.40
2023-01-13T14:09:25.301Z,14.00
2023-01-13T14:12:01.845Z,12.60
2023-01-13T14:14:29.979Z,14.30
2023-01-13T14:16:58.816Z,13.20
2023-01-13T14:19:26.895Z,17.30
2023-01-13T14:21:55.007Z,14.80
2023-01-13T14:24:24.926Z,14.60
2023-01-13T14:26:53.294Z,13.10
2023-01-13T14:29:23.734Z,14.20
2023-01-13T14:31:53.732Z,14.90
2023-01-13T14:34:28.785Z,17.10
2023-01-13T14:37:00.691Z,14.60
2023-01-13T14:39:40.900Z,15.40
2023-01-13T14:42:17.142Z,16.70
2023-01-13T14:44:47.686Z,14.70
2023-01-13T14:47:29.021Z,19.40
2023-01-13T14:50:06.294Z,14.80
2023-01-13T14:52:37.448Z,13.30
2023-01-13T14:55:10.084Z,14.30
2023-01-13T14:57:41.470Z,16.30
2023-01-13T15:00:15.186Z,15.80
2023-01-13T15:02:49.362Z,15.60
2023-01-13T15:05:17.680Z,14.60
2023-01-13T15:07:54.747Z,14.40
2023-01-13T15:10:29.615Z,15.40
2023-01-13T15:13:00.529Z,13.50
2023-01-13T15:15:39.668Z,16.50
2023-01-13T15:18:15.121Z,15.80
2023-01-13T15:20:43.409Z,19.70
2023-01-13T15:23:12.197Z,21.40
2023-01-13T15:25:42.318Z,17.40
2023-01-13T15:28:16.602Z,17.20
2023-01-13T15:30:45.425Z,18.10
2023-01-13T15:33:14.652Z,18.10
2023-01-13T15:38:16.043Z,17.60
2023-01-13T15:40:44.789Z,19.60
2023-01-13T15:43:40.707Z,19.10
2023-01-13T15:46:38.102Z,17.60
2023-01-13T15:49:23.232Z,17.50
2023-01-13T15:51:51.167Z,17.10
2023-01-13T15:54:22.791Z,16.90
2023-01-13T15:56:51.550Z,16.90
2023-01-13T15:59:23.765Z,17.20
2023-01-13T16:01:51.808Z,21.60
2023-01-13T16:04:19.730Z,21.70
2023-01-13T16:06:47.926Z,19.70
2023-01-13T16:09:16.912Z,16.10
2023-01-13T16:11:44.939Z,16.10
2023-01-13T16:14:12.849Z,16.70
2023-01-13T16:16:41.124Z,15.90
2023-01-13T16:19:12.192Z,12.30
2023-01-13T16:21:40.492Z,15.50
2023-01-13T16:24:08.393Z,16.60
2023-01-13T16:26:37.954Z,17.60
2023-01-13T16:29:07.368Z,11.30
2023-01-13T16:31:36.209Z,15.40
2023-01-13T16:34:05.572Z,14.90
2023-01-13T16:36:37.306Z,21.90
2023-01-13T16:39:19.241Z,16.90
2023-01-13T16:41:47.125Z,20.80
2023-01-13T16:44:15.291Z,14.30
2023-01-13T16:46:45.416Z,14.30
2023-01-13T16:49:16.003Z,16.30
2023-01-13T16:51:43.893Z,14.10
2023-01-13T16:54:12.228Z,16.40
2023-01-13T16:56:40.168Z,16.60
2023-01-13T16:59:16.065Z,15.80
2023-01-13T17:01:45.073Z,16.30
2023-01-13T17:04:18.685Z,15.50
2023-01-13T17:07:15.741Z,16.80
2023-01-13T17:09:44.049Z,14.40
2023-01-13T17:12:12.044Z,17.90
2023-01-13T17:14:40.157Z,15.10
2023-01-13T17:17:24.955Z,14.70
2023-01-13T17:19:54.113Z,14.60
2023-01-13T17:22:22.878Z,38.60
2023-01-13T17:24:50.931Z,25.40
2023-01-13T17:27:21.246Z,30.30
2023-01-13T17:29:50.380Z,14.90
2023-01-13T17:32:20.725Z,16.00
2023-01-13T17:34:49.365Z,15.30
2023-01-13T17:37:17.803Z,14.30
2023-01-13T17:39:46.835Z,16.10
2023-01-13T17:42:16.189Z,14.70
2023-01-13T17:44:44.186Z,14.20
2023-01-13T17:47:12.453Z,16.00
2023-01-13T17:49:40.349Z,16.60
2023-01-13T17:52:08.923Z,14.20
2023-01-13T17:54:36.922Z,16.10
2023-01-13T17:57:05.958Z,16.10
2023-01-13T17:59:33.850Z,16.50
2023-01-13T18:02:01.993Z,14.20
2023-01-13T18:04:31.111Z,17.40
2023-01-13T18:09:27.047Z,20.30
2023-01-13T18:11:55.323Z,19.80
2023-01-13T18:14:23.295Z,81.30
2023-01-13T18:16:51.926Z,55.10
2023-01-13T18:19:38.803Z,32.30
2023-01-13T18:22:25.504Z,87.30
2023-01-13T18:25:12.107Z,72.90
2023-01-13T18:27:41.927Z,53.20
2023-01-13T18:30:12.094Z,60.00
2023-01-13T18:32:40.211Z,76.00
2023-01-13T18:35:10.480Z,72.80
2023-01-13T18:37:40.610Z,22.10
2023-01-13T18:40:11.689Z,21.40
2023-01-13T18:42:53.690Z,18.30
2023-01-13T18:45:31.073Z,24.20
2023-01-13T18:48:02.102Z,21.30
2023-01-13T18:50:31.817Z,20.50
2023-01-13T18:53:00.257Z,25.80
2023-01-13T18:55:29.118Z,25.50
2023-01-13T18:57:58.968Z,24.30
2023-01-13T19:00:27.441Z,26.60
2023-01-13T19:05:35.789Z,24.30
2023-01-13T19:08:04.665Z,26.60
2023-01-13T19:10:33.016Z,36.70
2023-01-13T19:13:01.668Z,43.20
2023-01-13T19:15:30.503Z,49.10
2023-01-13T19:17:59.062Z,40.00
2023-01-13T19:20:27.130Z,39.30
2023-01-13T19:22:55.424Z,35.10
2023-01-13T19:25:23.426Z,42.40
2023-01-13T19:27:51.386Z,36.70
2023-01-13T19:30:19.594Z,62.30
2023-01-13T19:32:47.497Z,48.00
2023-01-13T19:35:18.203Z,50.50
2023-01-13T19:37:46.209Z,49.40
2023-01-13T19:40:14.369Z,54.40
2023-01-13T19:43:03.948Z,36.80
2023-01-13T19:45:33.815Z,36.70
2023-01-13T19:48:04.827Z,35.60
2023-01-13T19:50:37.477Z,36.30
2023-01-13T19:53:06.475Z,35.80
2023-01-13T19:55:34.656Z,32.80
2023-01-13T19:58:03.615Z,36.00
2023-01-13T20:00:31.816Z,56.40
2023-01-13T20:03:03.527Z,42.10
2023-01-13T20:05:31.647Z,34.20
2023-01-13T20:07:59.801Z,34.20
2023-01-13T20:10:30.533Z,33.50
2023-01-13T20:12:59.347Z,28.70
2023-01-13T20:15:27.758Z,34.80
2023-01-13T20:17:58.068Z,28.40
2023-01-13T20:20:27.443Z,30.70
2023-01-13T20:22:55.529Z,28.10
2023-01-13T20:25:23.857Z,28.20
2023-01-13T20:27:52.979Z,28.70
2023-01-13T20:30:21.079Z,43.30
2023-01-13T20:32:48.943Z,31.30
2023-01-13T20:35:17.202Z,29.50
2023-01-13T20:37:45.196Z,23.90
2023-01-13T20:40:15.781Z,27.50
2023-01-13T20:42:46.754Z,26.10
2023-01-13T20:45:20.055Z,27.80
2023-01-13T20:47:48.189Z,29.70
2023-01-13T20:50:17.529Z,23.50
2023-01-13T20:55:14.254Z,36.50
2023-01-13T20:57:42.360Z,31.80
2023-01-13T21:00:13.958Z,27.20
2023-01-13T21:02:41.988Z,26.50
2023-01-13T21:05:10.740Z,24.30
2023-01-13T21:07:38.853Z,29.90
2023-01-13T21:10:07.234Z,31.70
2023-01-13T21:12:53.801Z,32.00
2023-01-13T21:15:22.739Z,35.00
2023-01-13T21:18:10.347Z,44.20
2023-01-13T21:20:39.243Z,34.00
2023-01-13T21:23:07.941Z,38.80
2023-01-13T21:25:39.477Z,53.90
2023-01-13T21:28:11.258Z,39.20
2023-01-13T21:30:40.210Z,45.20
2023-01-13T21:35:40.379Z,40.80
2023-01-13T21:38:10.829Z,108.40
2023-01-13T21:40:38.871Z,64.80
2023-01-13T21:43:29.618Z,47.80
2023-01-13T21:46:16.271Z,47.50
2023-01-13T21:48:44.194Z,34.30
2023-01-13T21:51:12.114Z,38.40
2023-01-13T21:53:40.396Z,39.90
2023-01-13T21:56:08.212Z,55.90
2023-01-13T21:58:38.890Z,46.80
2023-01-13T22:01:07.154Z,28.50
2023-01-13T22:03:55.690Z,27.50
2023-01-13T22:06:24.578Z,27.10
2023-01-13T22:08:55.503Z,25.20
2023-01-13T22:11:23.390Z,34.00
2023-01-13T22:14:07.369Z,26.20
2023-01-13T22:16:42.099Z,20.00
2023-01-13T22:19:10.778Z,17.70
2023-01-13T22:24:08.252Z,19.00
2023-01-13T22:26:37.304Z,19.10
2023-01-13T22:29:05.813Z,22.40
2023-01-13T22:31:34.157Z,19.60
2023-01-13T22:34:02.180Z,17.60
2023-01-13T22:36:30.148Z,21.20
2023-01-13T22:39:00.611Z,21.60
2023-01-13T22:41:28.850Z,17.80
2023-01-13T22:43:57.024Z,21.40
2023-01-13T22:46:24.997Z,21.80
2023-01-13T22:48:54.816Z,24.90
2023-01-13T22:51:23.079Z,23.10
2023-01-13T22:53:51.355Z,27.60
2023-01-13T22:56:21.685Z,24.40
2023-01-13T22:58:57.340Z,29.30
2023-01-13T23:01:27.816Z,28.40
2023-01-13T23:03:56.619Z,26.30
2023-01-13T23:06:26.884Z,24.20
2023-01-13T23:08:55.628Z,28.70
2023-01-13T23:11:26.897Z,27.80
2023-01-13T23:14:00.691Z,30.30
2023-01-13T23:16:30.540Z,20.50
2023-01-13T23:18:58.607Z,24.70
2023-01-13T23:21:29.938Z,23.20
2023-01-13T23:23:58.958Z,28.20
2023-01-13T23:26:28.119Z,24.10
2023-01-13T23:29:05.651Z,25.50
2023-01-13T23:31:34.630Z,21.90
2023-01-13T23:34:02.904Z,21.30
2023-01-13T23:36:31.589Z,26.70
2023-01-13T23:38:59.821Z,30.50
2023-01-13T23:41:28.416Z,23.80
2023-01-13T23:44:01.032Z,26.60
2023-01-13T23:46:31.451Z,25.40
2023-01-13T23:48:59.664Z,22.30
2023-01-13T23:51:30.109Z,26.00
2023-01-13T23:53:59.291Z,24.10
2023-01-13T23:56:30.158Z,22.30
2023-01-13T23:58:58.875Z,24.30
